createdAt,value
2017-08-19T00:01:50.696Z,99995.81
2017-08-19T00:04:52.216Z,100004.84
2017-08-19T00:07:53.621Z,100001.84
2017-08-19T00:10:55.003Z,100000.92
2017-08-19T00:13:56.404Z,100007.59
2017-08-19T00:16:57.795Z,100010.30
2017-08-19T00:19:59.584Z,100014.21
2017-08-19T00:23:01.517Z,100025.34
2017-08-19T00:26:04.221Z,100026.27
2017-08-19T00:29:06.727Z,100025.52
2017-08-19T00:32:08.499Z,100036.82
2017-08-19T00:35:09.964Z,100026.48
2017-08-19T00:38:11.351Z,100030.06
2017-08-19T00:41:12.822Z,100027.45
2017-08-19T00:44:14.274Z,100017.29
2017-08-19T00:47:15.654Z,100033.31
2017-08-19T00:50:17.142Z,100037.74
2017-08-19T00:53:18.576Z,100041.91
2017-08-19T00:56:20.038Z,100035.84
2017-08-19T00:59:21.404Z,100039.91
2017-08-19T01:02:22.881Z,100046.39
2017-08-19T01:05:24.414Z,100040.44
2017-08-19T01:08:25.877Z,100038.55
2017-08-19T01:11:27.405Z,100039.45
2017-08-19T01:14:28.857Z,100043.97
2017-08-19T01:17:30.230Z,100044.53
2017-08-19T01:20:31.679Z,100052.89
2017-08-19T01:23:33.152Z,100044.41
2017-08-19T01:26:53.167Z,100040.55
2017-08-19T01:29:55.303Z,100053.77
2017-08-19T01:32:56.696Z,100046.74
2017-08-19T01:35:58.105Z,100047.68
2017-08-19T01:38:59.479Z,100046.23
2017-08-19T01:42:01.582Z,100046.86
2017-08-19T01:45:02.990Z,100045.18
2017-08-19T01:48:05.158Z,100039.97
2017-08-19T01:51:06.599Z,100045.30
2017-08-19T01:54:08.024Z,100045.38
2017-08-19T01:57:09.419Z,100040.63
2017-08-19T02:00:11.566Z,100042.18
2017-08-19T02:03:12.971Z,100033.47
2017-08-19T02:06:14.426Z,100041.19
2017-08-19T02:09:15.798Z,100049.34
2017-08-19T02:12:17.197Z,100031.77
2017-08-19T02:15:19.315Z,100035.45
2017-08-19T02:18:20.777Z,100036.08
2017-08-19T02:21:22.196Z,100035.73
2017-08-19T02:24:23.633Z,100043.70
2017-08-19T02:27:25.764Z,100045.06
2017-08-19T02:30:27.139Z,100039.36
2017-08-19T02:33:29.293Z,100036.00
2017-08-19T02:36:30.672Z,100040.89
2017-08-19T02:39:32.814Z,100036.27
2017-08-19T02:42:34.225Z,100039.84
2017-08-19T02:45:35.562Z,100034.51
2017-08-19T02:48:36.956Z,100032.69
2017-08-19T02:51:38.376Z,100033.22
2017-08-19T02:54:39.704Z,100038.26
2017-08-19T02:57:41.081Z,100035.28
2017-08-19T03:00:42.448Z,100042.12
2017-08-19T03:03:43.845Z,100041.89
2017-08-19T03:06:45.969Z,100050.25
2017-08-19T03:09:47.345Z,100054.55
2017-08-19T03:12:48.760Z,100049.02
2017-08-19T03:15:50.161Z,100047.09
2017-08-19T03:18:52.303Z,100041.83
2017-08-19T03:21:53.706Z,100051.16
2017-08-19T03:24:55.061Z,100036.78
2017-08-19T03:27:56.436Z,100047.95
2017-08-19T03:30:57.790Z,100049.20
2017-08-19T03:33:59.173Z,100041.91
2017-08-19T03:37:01.314Z,100052.45
2017-08-19T03:40:02.704Z,100052.23
2017-08-19T03:43:04.841Z,100050.91
2017-08-19T03:46:06.245Z,100056.71
2017-08-19T03:49:07.607Z,100054.20
2017-08-19T03:52:08.982Z,100059.89
2017-08-19T03:55:10.363Z,100056.95
2017-08-19T03:58:11.757Z,100056.52
2017-08-19T04:01:13.202Z,100054.22
2017-08-19T04:04:14.576Z,100057.26
2017-08-19T04:07:16.010Z,100059.92
2017-08-19T04:10:17.456Z,100065.08
2017-08-19T04:13:18.826Z,100058.93
2017-08-19T04:16:20.163Z,100060.55
2017-08-19T04:19:21.617Z,100072.08
2017-08-19T04:22:22.976Z,100070.16
2017-08-19T04:25:24.343Z,100073.64
2017-08-19T04:28:25.752Z,100065.87
2017-08-19T04:31:27.149Z,100071.26
2017-08-19T04:34:28.547Z,100073.30
2017-08-19T04:37:30.656Z,100076.48
2017-08-19T04:40:32.039Z,100076.92
2017-08-19T04:43:33.449Z,100074.33
2017-08-19T04:46:34.841Z,100076.31
2017-08-19T04:49:36.212Z,100077.73
2017-08-19T04:52:38.354Z,100088.70
2017-08-19T04:55:39.698Z,100087.77
2017-08-19T04:58:41.148Z,100087.13
2017-08-19T05:01:42.549Z,100096.36
2017-08-19T05:04:43.962Z,100089.46
2017-08-19T05:07:45.390Z,100086.70
2017-08-19T05:10:46.759Z,100096.30
2017-08-19T05:13:48.132Z,100094.76
2017-08-19T05:16:50.241Z,100086.98
2017-08-19T05:19:51.641Z,100081.61
2017-08-19T05:22:53.044Z,100092.76
2017-08-19T05:25:54.433Z,100100.28
2017-08-19T05:28:55.865Z,100091.11
2017-08-19T05:31:57.253Z,100093.73
2017-08-19T05:34:58.673Z,100107.36
2017-08-19T05:38:00.027Z,100111.58
2017-08-19T05:41:01.439Z,100114.48
2017-08-19T05:44:02.838Z,100114.86
2017-08-19T05:47:04.239Z,100127.99
2017-08-19T05:50:05.606Z,100099.66
2017-08-19T05:53:06.945Z,100114.81
2017-08-19T05:56:08.286Z,100113.83
2017-08-19T05:59:09.650Z,100105.91
2017-08-19T06:02:11.055Z,100112.07
2017-08-19T06:05:12.435Z,100108.11
2017-08-19T06:08:13.803Z,100117.22
2017-08-19T06:11:15.192Z,100117.36
2017-08-19T06:14:16.589Z,100115.58
2017-08-19T06:17:17.998Z,100116.16
2017-08-19T06:20:19.436Z,100112.46
2017-08-19T06:23:20.782Z,100104.30
2017-08-19T06:26:22.159Z,100104.06
2017-08-19T06:29:23.468Z,100107.94
2017-08-19T06:32:24.826Z,100107.09
2017-08-19T06:35:26.166Z,100097.77
2017-08-19T06:38:27.498Z,100098.06
2017-08-19T06:41:28.866Z,100091.17
2017-08-19T06:44:30.256Z,100094.83
2017-08-19T06:47:31.668Z,100100.04
2017-08-19T06:50:33.077Z,100114.54
2017-08-19T06:53:35.217Z,100114.62
2017-08-19T06:56:36.614Z,100105.08
2017-08-19T06:59:37.947Z,100114.25
2017-08-19T07:02:40.113Z,100113.66
2017-08-19T07:05:41.451Z,100107.53
2017-08-19T07:08:42.845Z,100115.17
2017-08-19T07:11:44.247Z,100110.22
2017-08-19T07:14:45.589Z,100112.44
2017-08-19T07:17:47.016Z,100112.78
2017-08-19T07:20:48.369Z,100115.05
2017-08-19T07:23:49.772Z,100114.09
2017-08-19T07:26:51.851Z,100111.07
2017-08-19T07:29:53.977Z,100115.88
2017-08-19T07:32:55.349Z,100119.88
2017-08-19T07:35:56.710Z,100115.39
2017-08-19T07:38:58.840Z,100115.84
2017-08-19T07:42:00.211Z,100120.17
2017-08-19T07:45:01.545Z,100125.31
2017-08-19T07:48:02.968Z,100123.38
2017-08-19T07:51:04.311Z,100119.70
2017-08-19T07:54:05.687Z,100121.02
2017-08-19T07:57:07.088Z,100115.27
2017-08-19T08:00:09.191Z,100142.34
2017-08-19T08:03:10.563Z,100139.98
2017-08-19T08:06:11.922Z,100135.44
2017-08-19T08:09:13.291Z,100141.51
2017-08-19T08:12:14.648Z,100148.33
2017-08-19T08:15:16.021Z,100150.22
2017-08-19T08:18:17.382Z,100149.09
2017-08-19T08:21:18.764Z,100157.37
2017-08-19T08:24:20.149Z,100163.79
2017-08-19T08:27:21.533Z,100157.73
2017-08-19T08:30:22.891Z,100161.74
2017-08-19T08:33:24.284Z,100160.04
2017-08-19T08:36:25.636Z,100161.89
2017-08-19T08:39:27.054Z,100162.58
2017-08-19T08:42:28.417Z,100173.39
2017-08-19T08:45:29.837Z,100171.09
2017-08-19T08:48:31.472Z,100188.58
2017-08-19T08:51:33.637Z,100182.59
2017-08-19T08:54:35.778Z,100192.30
2017-08-19T08:57:37.182Z,100186.26
2017-08-19T09:00:38.757Z,100181.69
2017-08-19T09:03:40.120Z,100186.14
2017-08-19T09:06:41.493Z,100183.80
2017-08-19T09:09:42.884Z,100182.12
2017-08-19T09:12:44.321Z,100179.98
2017-08-19T09:15:46.407Z,100175.88
2017-08-19T09:18:47.801Z,100183.66
2017-08-19T09:21:49.341Z,100180.38
2017-08-19T09:24:50.701Z,100172.51
2017-08-19T09:27:52.291Z,100179.20
2017-08-19T09:30:53.741Z,100171.09
2017-08-19T09:33:55.121Z,100177.85
2017-08-19T09:36:56.438Z,100177.38
2017-08-19T09:39:57.833Z,100166.61
2017-08-19T09:42:59.191Z,100171.09
2017-08-19T09:46:00.572Z,100167.41
2017-08-19T09:49:01.888Z,100191.62
2017-08-19T09:52:03.331Z,100180.34
2017-08-19T09:55:04.723Z,100185.80
2017-08-19T09:58:06.095Z,100190.88
2017-08-19T10:01:07.492Z,100196.77
2017-08-19T10:04:08.905Z,100203.02
2017-08-19T10:07:11.041Z,100202.59
2017-08-19T10:10:30.971Z,100208.84
2017-08-19T10:13:32.347Z,100216.13
2017-08-19T10:16:33.713Z,100215.23
2017-08-19T10:19:35.158Z,100217.84
2017-08-19T10:22:36.734Z,100213.25
2017-08-19T10:25:38.080Z,100211.59
2017-08-19T10:28:39.444Z,100209.69
2017-08-19T10:31:40.780Z,100209.86
2017-08-19T10:34:42.176Z,100214.44
2017-08-19T10:37:44.275Z,100220.55
2017-08-19T10:40:45.679Z,100223.34
2017-08-19T10:43:47.041Z,100214.93
2017-08-19T10:46:49.170Z,100224.67
2017-08-19T10:49:50.663Z,100226.65
2017-08-19T10:52:52.028Z,100231.31
2017-08-19T10:55:54.148Z,100226.23
2017-08-19T10:58:55.454Z,100211.70
2017-08-19T11:01:56.825Z,100221.98
2017-08-19T11:04:58.179Z,100221.53
2017-08-19T11:07:59.578Z,100226.91
2017-08-19T11:11:01.078Z,100217.63
2017-08-19T11:14:02.441Z,100222.66
2017-08-19T11:17:03.911Z,100226.77
2017-08-19T11:20:05.231Z,100233.47
2017-08-19T11:23:06.641Z,100239.23
2017-08-19T11:26:08.760Z,100263.98
2017-08-19T11:29:10.137Z,100240.63
2017-08-19T11:32:11.498Z,100239.99
2017-08-19T11:35:12.892Z,100259.17
2017-08-19T11:38:14.380Z,100247.08
2017-08-19T11:41:15.736Z,100249.64
2017-08-19T11:44:17.103Z,100248.12
2017-08-19T11:47:18.493Z,100252.25
2017-08-19T11:50:19.913Z,100247.73
2017-08-19T11:53:21.299Z,100237.03
2017-08-19T11:56:22.675Z,100261.00
2017-08-19T11:59:24.155Z,100257.92
2017-08-19T12:02:25.527Z,100246.11
2017-08-19T12:05:27.683Z,100257.48
2017-08-19T12:08:29.034Z,100257.05
2017-08-19T12:11:30.416Z,100254.58
2017-08-19T12:14:31.783Z,100257.89
2017-08-19T12:17:33.195Z,100257.83
2017-08-19T12:20:35.309Z,100263.38
2017-08-19T12:23:36.698Z,100263.45
2017-08-19T12:26:38.167Z,100276.05
2017-08-19T12:29:40.343Z,100271.64
2017-08-19T12:32:42.508Z,100262.09
2017-08-19T12:35:44.610Z,100266.29
2017-08-19T12:38:45.967Z,100272.34
2017-08-19T12:41:47.324Z,100274.01
2017-08-19T12:44:48.680Z,100269.42
2017-08-19T12:47:50.043Z,100272.32
2017-08-19T12:50:51.443Z,100278.16
2017-08-19T12:53:52.851Z,100275.56
2017-08-19T12:56:54.254Z,100279.82
2017-08-19T12:59:55.891Z,100279.14
2017-08-19T13:03:04.805Z,100285.89
2017-08-19T13:06:06.193Z,100280.16
2017-08-19T13:09:07.547Z,100294.19
2017-08-19T13:12:08.936Z,100282.08
2017-08-19T13:15:10.321Z,100287.63
2017-08-19T13:18:12.449Z,100282.94
2017-08-19T13:21:13.792Z,100283.73
2017-08-19T13:24:15.169Z,100267.30
2017-08-19T13:27:16.512Z,100277.08
2017-08-19T13:30:17.926Z,100283.30
2017-08-19T13:33:19.325Z,100281.73
2017-08-19T13:36:20.753Z,100281.06
2017-08-19T13:39:22.110Z,100285.66
2017-08-19T13:42:23.497Z,100303.73
2017-08-19T13:45:25.629Z,100292.17
2017-08-19T13:48:27.027Z,100288.81
2017-08-19T13:51:29.490Z,100287.92
2017-08-19T13:54:31.639Z,100289.41
2017-08-19T13:57:33.117Z,100292.56
2017-08-19T14:00:35.193Z,100302.20
2017-08-19T14:03:36.596Z,100302.41
2017-08-19T14:06:37.954Z,100289.48
2017-08-19T14:09:39.361Z,100303.97
2017-08-19T14:12:40.751Z,100303.14
2017-08-19T14:15:42.114Z,100292.64
2017-08-19T14:18:43.776Z,100295.23
2017-08-19T14:21:45.116Z,100292.06
2017-08-19T14:24:46.487Z,100289.83
2017-08-19T14:27:48.575Z,100294.18
2017-08-19T14:30:56.944Z,100303.19
2017-08-19T14:33:58.292Z,100294.24
2017-08-19T14:36:59.684Z,100302.42
2017-08-19T14:40:01.769Z,100303.84
2017-08-19T14:43:03.191Z,100312.27
2017-08-19T14:46:05.297Z,100319.98
2017-08-19T14:49:06.713Z,100321.03
2017-08-19T14:52:08.832Z,100339.28
2017-08-19T14:55:10.252Z,100329.57
2017-08-19T14:58:11.722Z,100322.05
2017-08-19T15:01:13.074Z,100337.55
2017-08-19T15:04:14.468Z,100348.59
2017-08-19T15:07:15.845Z,100342.37
2017-08-19T15:10:17.984Z,100339.84
2017-08-19T15:13:19.337Z,100339.49
2017-08-19T15:16:20.734Z,100341.23
2017-08-19T15:19:22.401Z,100348.80
2017-08-19T15:22:23.781Z,100337.44
2017-08-19T15:25:25.132Z,100341.67
2017-08-19T15:28:26.517Z,100357.45
2017-08-19T15:31:27.958Z,100361.39
2017-08-19T15:34:29.325Z,100365.16
2017-08-19T15:37:31.475Z,100384.34
2017-08-19T15:40:32.824Z,100380.61
2017-08-19T15:43:34.207Z,100388.59
2017-08-19T15:46:35.715Z,100393.62
2017-08-19T15:49:37.097Z,100411.97
2017-08-19T15:52:38.465Z,100426.92
2017-08-19T15:55:39.858Z,100432.98
2017-08-19T15:58:41.220Z,100420.50
2017-08-19T16:01:42.557Z,100405.21
2017-08-19T16:04:43.950Z,100420.59
2017-08-19T16:07:46.066Z,100423.02
2017-08-19T16:10:47.443Z,100412.75
2017-08-19T16:13:48.914Z,100404.02
2017-08-19T16:16:50.278Z,100406.41
2017-08-19T16:19:51.648Z,100403.66
2017-08-19T16:22:52.984Z,100396.86
2017-08-19T16:25:54.349Z,100390.92
2017-08-19T16:28:55.678Z,100387.86
2017-08-19T16:31:57.049Z,100383.93
2017-08-19T16:34:58.621Z,100386.22
2017-08-19T16:38:00.003Z,100385.53
2017-08-19T16:41:01.372Z,100387.81
2017-08-19T16:44:02.740Z,100384.55
2017-08-19T16:47:04.208Z,100375.63
2017-08-19T16:50:05.573Z,100378.59
2017-08-19T16:53:07.712Z,100383.64
2017-08-19T16:56:09.061Z,100382.59
2017-08-19T16:59:10.573Z,100388.25
2017-08-19T17:02:11.944Z,100384.52
2017-08-19T17:05:13.337Z,100382.23
2017-08-19T17:08:15.398Z,100387.59
2017-08-19T17:11:16.928Z,100395.20
2017-08-19T17:14:18.275Z,100392.16
2017-08-19T17:17:19.628Z,100396.34
2017-08-19T17:20:20.988Z,100398.16
2017-08-19T17:23:22.376Z,100400.48
2017-08-19T17:26:24.470Z,100399.09
2017-08-19T17:29:25.836Z,100407.00
2017-08-19T17:32:27.207Z,100401.86
2017-08-19T17:35:28.552Z,100411.91
2017-08-19T17:38:29.938Z,100408.69
2017-08-19T17:41:32.025Z,100402.42
2017-08-19T17:44:33.407Z,100405.38
2017-08-19T17:47:34.806Z,100417.11
2017-08-19T17:50:36.927Z,100407.84
2017-08-19T17:53:38.307Z,100409.92
2017-08-19T17:56:39.728Z,100405.08
2017-08-19T17:59:41.080Z,100409.05
2017-08-19T18:02:42.473Z,100404.13
2017-08-19T18:05:43.829Z,100407.20
2017-08-19T18:08:45.226Z,100407.41
2017-08-19T18:11:46.841Z,100423.75
2017-08-19T18:14:48.935Z,100423.23
2017-08-19T18:17:50.435Z,100426.12
2017-08-19T18:20:51.796Z,100426.47
2017-08-19T18:23:53.157Z,100421.88
2017-08-19T18:26:55.267Z,100427.91
2017-08-19T18:29:56.660Z,100426.30
2017-08-19T18:32:58.050Z,100434.45
2017-08-19T18:35:59.417Z,100435.21
2017-08-19T18:39:00.979Z,100447.14
2017-08-19T18:42:02.320Z,100441.66
2017-08-19T18:45:03.696Z,100454.62
2017-08-19T18:48:05.016Z,100461.31
2017-08-19T18:51:06.361Z,100464.41
2017-08-19T18:54:07.723Z,100464.03
2017-08-19T18:57:09.112Z,100455.74
2017-08-19T19:00:10.485Z,100468.50
2017-08-19T19:03:12.611Z,100474.14
2017-08-19T19:06:14.109Z,100468.63
2017-08-19T19:09:15.460Z,100472.94
2017-08-19T19:12:17.832Z,100475.58
2017-08-19T19:15:19.944Z,100475.29
2017-08-19T19:18:21.383Z,100477.05
2017-08-19T19:21:22.743Z,100475.69
2017-08-19T19:24:24.150Z,100476.56
2017-08-19T19:27:25.712Z,100473.43
2017-08-19T19:30:27.180Z,100480.55
2017-08-19T19:33:28.657Z,100485.42
2017-08-19T19:36:30.054Z,100494.68
2017-08-19T19:39:32.233Z,100497.60
2017-08-19T19:42:33.617Z,100492.27
2017-08-19T19:45:35.020Z,100495.70
2017-08-19T19:48:36.400Z,100506.33
2017-08-19T19:51:37.853Z,100505.30
2017-08-19T19:54:39.282Z,100513.41
2017-08-19T19:57:40.679Z,100523.53
2017-08-19T20:00:42.814Z,100521.10
2017-08-19T20:03:44.183Z,100530.82
2017-08-19T20:06:45.649Z,100519.80
2017-08-19T20:09:47.804Z,100527.84
2017-08-19T20:12:49.225Z,100528.69
2017-08-19T20:15:50.676Z,100534.95
2017-08-19T20:18:52.159Z,100527.52
2017-08-19T20:21:53.573Z,100533.94
2017-08-19T20:24:55.050Z,100527.81
2017-08-19T20:27:56.543Z,100535.70
2017-08-19T20:30:57.989Z,100536.55
2017-08-19T20:33:59.447Z,100537.02
2017-08-19T20:37:00.901Z,100541.45
2017-08-19T20:40:03.081Z,100544.77
2017-08-19T20:43:04.494Z,100542.91
2017-08-19T20:46:05.973Z,100529.66
2017-08-19T20:49:08.119Z,100531.05
2017-08-19T20:52:09.500Z,100533.55
2017-08-19T20:55:10.904Z,100534.63
2017-08-19T20:58:12.425Z,100530.05
2017-08-19T21:01:13.868Z,100533.22
2017-08-19T21:04:15.416Z,100529.53
2017-08-19T21:07:17.623Z,100525.75
2017-08-19T21:10:19.136Z,100531.77
2017-08-19T21:13:20.635Z,100528.34
2017-08-19T21:16:22.197Z,100530.32
2017-08-19T21:19:23.647Z,100518.63
2017-08-19T21:22:25.117Z,100536.20
2017-08-19T21:25:26.647Z,100529.30
2017-08-19T21:28:28.213Z,100528.14
2017-08-19T21:31:29.586Z,100531.25
2017-08-19T21:34:30.991Z,100533.42
2017-08-19T21:37:32.409Z,100532.08
2017-08-19T21:40:33.857Z,100535.53
2017-08-19T21:46:44.266Z,100532.05
2017-08-19T21:49:45.637Z,100526.75
2017-08-19T21:52:47.056Z,100544.97
2017-08-19T21:55:48.497Z,100544.56
2017-08-19T21:58:50.654Z,100548.30
2017-08-19T22:01:52.860Z,100547.31
2017-08-19T22:04:54.208Z,100542.31
2017-08-19T22:07:55.630Z,100538.45
2017-08-19T22:10:57.782Z,100539.59
2017-08-19T22:13:59.205Z,100529.13
2017-08-19T22:17:00.636Z,100531.11
2017-08-19T22:20:02.088Z,100529.78
2017-08-19T22:23:03.492Z,100525.05
2017-08-19T22:26:04.926Z,100529.20
2017-08-19T22:29:06.347Z,100529.41
2017-08-19T22:32:07.693Z,100522.73
2017-08-19T22:35:09.129Z,100529.53
2017-08-19T22:38:11.265Z,100537.07
2017-08-19T22:41:12.732Z,100536.86
2017-08-19T22:44:14.878Z,100538.03
2017-08-19T22:47:16.328Z,100534.16
2017-08-19T22:50:17.740Z,100528.05
2017-08-19T22:53:19.143Z,100526.38
2017-08-19T22:56:20.629Z,100532.11
2017-08-19T22:59:21.997Z,100528.11
2017-08-19T23:02:23.415Z,100535.83
2017-08-19T23:05:24.794Z,100527.39
2017-08-19T23:08:26.193Z,100535.05
2017-08-19T23:11:27.682Z,100533.62
2017-08-19T23:14:29.817Z,100536.95
2017-08-19T23:17:31.239Z,100532.00
2017-08-19T23:20:32.625Z,100542.22
2017-08-19T23:23:34.024Z,100537.97
2017-08-19T23:26:35.405Z,100543.14
2017-08-19T23:29:36.833Z,100540.16
2017-08-19T23:32:38.203Z,100545.45
2017-08-19T23:35:39.608Z,100542.16
2017-08-19T23:38:41.736Z,100547.10
2017-08-19T23:41:43.074Z,100542.02
2017-08-19T23:44:44.452Z,100546.14
2017-08-19T23:47:45.839Z,100541.14
2017-08-19T23:50:47.244Z,100540.25
2017-08-19T23:53:48.590Z,100546.17
2017-08-19T23:56:49.976Z,100543.89
2017-08-19T23:59:52.100Z,100549.47
